Time,TemperatureF,DewpointF,PressureIn,WindDirection,WindDirectionDegrees,WindSpeedMPH,WindSpeedGustMPH,Humidity,HourlyPrecipIn,Conditions,Clouds,dailyrainin,SolarRadiationWatts/m^2,SoftwareType,DateUTC
2013-04-07 00:22:00,45.0,39.0,-100.00,SE,138,6.0,9.0,78,0.00,,,0.01,0.000000,,2013-04-07 06:22:00,
2013-04-07 00:32:00,45.0,39.0,-100.00,SE,138,6.0,9.0,78,0.00,,,0.01,0.000000,,2013-04-07 06:32:00,
2013-04-07 00:42:00,45.0,39.0,-100.00,SE,138,6.0,9.0,78,0.00,,,0.01,0.000000,,2013-04-07 06:42:00,
2013-04-07 00:52:00,45.0,39.0,-100.00,SE,138,6.0,9.0,78,0.00,,,0.01,0.000000,,2013-04-07 06:52:00,
2013-04-07 01:42:00,43.0,38.0,-100.00,SSE,148,7.0,8.0,83,0.00,,,0.01,0.000000,,2013-04-07 07:42:00,
2013-04-07 01:52:00,43.0,38.0,-100.00,SSE,148,7.0,8.0,83,0.00,,,0.01,0.000000,,2013-04-07 07:52:00,
2013-04-07 02:32:00,42.0,38.0,-100.00,ENE,75,2.0,9.0,86,0.00,,,0.01,0.000000,,2013-04-07 08:32:00,
2013-04-07 02:42:00,42.0,38.0,-100.00,ENE,75,2.0,9.0,86,0.00,,,0.01,0.000000,,2013-04-07 08:42:00,
2013-04-07 02:52:00,42.0,38.0,-100.00,ENE,75,2.0,9.0,86,0.00,,,0.01,0.000000,,2013-04-07 08:52:00,
2013-04-07 03:22:00,42.0,38.0,-100.00,SSE,162,3.0,4.0,87,0.00,,,0.01,0.000000,,2013-04-07 09:22:00,
2013-04-07 03:33:00,42.0,38.0,-100.00,SSE,162,3.0,4.0,87,0.00,,,0.01,0.000000,,2013-04-07 09:33:00,
2013-04-07 03:43:00,42.0,38.0,-100.00,SSE,162,3.0,4.0,87,0.00,,,0.01,0.000000,,2013-04-07 09:43:00,
2013-04-07 03:53:00,42.0,38.0,-100.00,SSE,162,3.0,4.0,87,0.00,,,0.01,0.000000,,2013-04-07 09:53:00,
2013-04-07 04:22:00,43.0,37.0,-100.00,East,98,3.0,7.0,80,0.00,,,0.01,0.000000,,2013-04-07 10:22:00,
2013-04-07 04:33:00,43.0,37.0,-100.00,East,98,3.0,7.0,80,0.00,,,0.01,0.000000,,2013-04-07 10:33:00,
2013-04-07 04:42:00,43.0,37.0,-100.00,East,98,3.0,7.0,80,0.00,,,0.01,0.000000,,2013-04-07 10:42:00,
2013-04-07 04:52:00,43.0,37.0,-100.00,East,98,3.0,7.0,80,0.00,,,0.01,0.000000,,2013-04-07 10:52:00,
2013-04-07 05:32:00,43.0,36.0,-100.00,South,177,5.0,6.0,75,0.00,,,0.01,0.000000,,2013-04-07 11:32:00,
2013-04-07 05:42:00,43.0,36.0,-100.00,South,177,5.0,6.0,75,0.00,,,0.01,0.000000,,2013-04-07 11:42:00,
2013-04-07 05:52:00,43.0,36.0,-100.00,South,177,5.0,6.0,75,0.00,,,0.01,0.000000,,2013-04-07 11:52:00,
2013-04-07 06:22:00,42.0,40.0,-100.00,SE,126,5.0,7.0,92,0.00,,,0.01,0.000000,,2013-04-07 12:22:00,
2013-04-07 06:33:00,42.0,40.0,-100.00,SE,126,5.0,7.0,92,0.00,,,0.01,0.000000,,2013-04-07 12:33:00,
2013-04-07 06:42:00,42.0,40.0,-100.00,SE,126,5.0,7.0,92,0.00,,,0.01,0.000000,,2013-04-07 12:42:00,
2013-04-07 06:53:00,42.0,40.0,-100.00,SE,126,5.0,7.0,92,0.00,,,0.01,0.000000,,2013-04-07 12:53:00,
2013-04-07 07:22:00,43.0,38.0,-100.00,SE,125,6.0,8.0,84,0.00,,,0.01,3.000000,,2013-04-07 13:22:00,
2013-04-07 07:32:00,43.0,38.0,-100.00,SE,125,6.0,8.0,84,0.00,,,0.01,3.000000,,2013-04-07 13:32:00,
2013-04-07 07:42:00,43.0,38.0,-100.00,SE,125,6.0,8.0,84,0.00,,,0.01,3.000000,,2013-04-07 13:42:00,
2013-04-07 07:52:00,43.0,38.0,-100.00,SE,125,6.0,8.0,84,0.00,,,0.01,3.000000,,2013-04-07 13:52:00,
2013-04-07 08:22:00,44.0,40.0,-100.00,SSE,150,9.0,11.0,86,0.00,,,0.01,47.000000,,2013-04-07 14:22:00,
2013-04-07 08:32:00,44.0,40.0,-100.00,SSE,150,9.0,11.0,86,0.00,,,0.01,47.000000,,2013-04-07 14:32:00,
2013-04-07 08:43:00,44.0,40.0,-100.00,SSE,150,9.0,11.0,86,0.00,,,0.01,47.000000,,2013-04-07 14:43:00,
2013-04-07 08:53:00,44.0,40.0,-100.00,SSE,150,9.0,11.0,86,0.00,,,0.01,47.000000,,2013-04-07 14:53:00,
2013-04-07 10:33:00,54.0,42.0,-100.00,SSE,160,5.0,11.0,63,-99.99,,,0.01,449.000000,,2013-04-07 16:33:00,
2013-04-07 10:42:00,54.0,42.0,-100.00,SSE,160,5.0,11.0,63,-99.99,,,0.01,449.000000,,2013-04-07 16:42:00,
2013-04-07 10:53:00,54.0,42.0,-100.00,SSE,160,5.0,11.0,63,-99.99,,,0.01,449.000000,,2013-04-07 16:53:00,
2013-04-07 11:23:00,56.0,36.0,-100.00,East,81,5.0,14.0,46,0.00,,,0.01,495.000000,,2013-04-07 17:23:00,
2013-04-07 11:32:00,56.0,36.0,-100.00,East,81,5.0,14.0,46,0.00,,,0.01,495.000000,,2013-04-07 17:32:00,
2013-04-07 11:42:00,56.0,36.0,-100.00,East,81,5.0,14.0,46,0.00,,,0.01,495.000000,,2013-04-07 17:42:00,
2013-04-07 11:52:00,56.0,36.0,-100.00,East,81,5.0,14.0,46,0.00,,,0.01,495.000000,,2013-04-07 17:52:00,
2013-04-07 12:32:00,52.0,35.0,-100.00,SE,138,8.0,17.0,52,0.00,,,0.01,251.000000,,2013-04-07 18:32:00,
2013-04-07 12:42:00,52.0,35.0,-100.00,SE,138,8.0,17.0,52,0.00,,,0.01,251.000000,,2013-04-07 18:42:00,
2013-04-07 12:52:00,52.0,35.0,-100.00,SE,138,8.0,17.0,52,0.00,,,0.01,251.000000,,2013-04-07 18:52:00,
2013-04-07 13:22:00,60.0,37.0,-100.00,SE,142,7.0,16.0,43,0.00,,,0.01,691.000000,,2013-04-07 19:22:00,
2013-04-07 13:32:00,60.0,37.0,-100.00,SE,142,7.0,16.0,43,0.00,,,0.01,691.000000,,2013-04-07 19:32:00,
2013-04-07 13:42:00,60.0,37.0,-100.00,SE,142,7.0,16.0,43,0.00,,,0.01,691.000000,,2013-04-07 19:42:00,
2013-04-07 13:52:00,60.0,37.0,-100.00,SE,142,7.0,16.0,43,0.00,,,0.01,691.000000,,2013-04-07 19:52:00,
2013-04-07 14:32:00,63.0,36.0,-100.00,South,187,9.0,15.0,37,0.00,,,0.01,749.000000,,2013-04-07 20:32:00,
2013-04-07 14:43:00,63.0,36.0,-100.00,South,187,9.0,15.0,37,0.00,,,0.01,749.000000,,2013-04-07 20:43:00,
2013-04-07 14:52:00,63.0,36.0,-100.00,South,187,9.0,15.0,37,0.00,,,0.01,749.000000,,2013-04-07 20:52:00,
2013-04-07 15:22:00,62.0,34.0,-100.00,SSW,195,9.0,18.0,35,0.00,,,0.01,443.000000,,2013-04-07 21:22:00,
2013-04-07 15:33:00,62.0,34.0,-100.00,SSW,195,9.0,18.0,35,0.00,,,0.01,443.000000,,2013-04-07 21:33:00,
2013-04-07 15:43:00,62.0,34.0,-100.00,SSW,195,9.0,18.0,35,0.00,,,0.01,443.000000,,2013-04-07 21:43:00,
2013-04-07 15:52:00,62.0,34.0,-100.00,SSW,195,9.0,18.0,35,0.00,,,0.01,443.000000,,2013-04-07 21:52:00,
2013-04-07 16:23:00,56.0,28.0,-100.00,North,350,13.0,22.0,34,0.00,,,0.01,482.000000,,2013-04-07 22:23:00,
2013-04-07 16:33:00,56.0,28.0,-100.00,North,350,13.0,22.0,34,0.00,,,0.01,482.000000,,2013-04-07 22:33:00,
2013-04-07 16:43:00,56.0,28.0,-100.00,North,350,13.0,22.0,34,0.00,,,0.01,482.000000,,2013-04-07 22:43:00,
2013-04-07 17:22:00,55.0,33.0,-100.00,NE,38,11.0,20.0,43,0.00,,,0.01,439.000000,,2013-04-07 23:22:00,
2013-04-07 17:32:00,55.0,33.0,-100.00,NE,38,11.0,20.0,43,0.00,,,0.01,439.000000,,2013-04-07 23:32:00,
2013-04-07 17:42:00,55.0,33.0,-100.00,NE,38,11.0,20.0,43,0.00,,,0.01,439.000000,,2013-04-07 23:42:00,
2013-04-07 17:52:00,55.0,33.0,-100.00,NE,38,11.0,20.0,43,0.00,,,0.01,439.000000,,2013-04-07 23:52:00,
2013-04-07 18:22:00,52.0,38.0,-100.00,NE,55,11.0,19.0,58,0.00,,,0.01,72.000000,,2013-04-08 00:22:00,
2013-04-07 18:32:00,52.0,38.0,-100.00,NE,55,11.0,19.0,58,0.00,,,0.01,72.000000,,2013-04-08 00:32:00,
2013-04-07 18:42:00,52.0,38.0,-100.00,NE,55,11.0,19.0,58,0.00,,,0.01,72.000000,,2013-04-08 00:42:00,
2013-04-07 18:52:00,52.0,38.0,-100.00,NE,55,11.0,19.0,58,0.00,,,0.01,72.000000,,2013-04-08 00:52:00,
2013-04-07 19:22:00,50.0,38.0,-100.00,West,279,10.0,16.0,64,0.00,,,0.01,19.000000,,2013-04-08 01:22:00,
2013-04-07 19:33:00,50.0,38.0,-100.00,West,279,10.0,16.0,64,0.00,,,0.01,19.000000,,2013-04-08 01:33:00,
2013-04-07 19:42:00,50.0,38.0,-100.00,West,279,10.0,16.0,64,0.00,,,0.01,19.000000,,2013-04-08 01:42:00,
2013-04-07 19:53:00,50.0,38.0,-100.00,West,279,10.0,16.0,64,0.00,,,0.01,19.000000,,2013-04-08 01:53:00,
2013-04-07 20:33:00,46.0,40.0,-100.00,ENE,74,9.0,12.0,80,0.06,,,0.07,30.000000,,2013-04-08 02:33:00,
2013-04-07 20:52:00,46.0,40.0,-100.00,ENE,74,9.0,12.0,80,0.06,,,0.07,30.000000,,2013-04-08 02:52:00,
2013-04-07 21:23:00,44.0,39.0,-100.00,East,91,7.0,11.0,82,0.00,,,0.06,0.000000,,2013-04-08 03:23:00,
2013-04-07 21:33:00,44.0,39.0,-100.00,East,91,7.0,11.0,82,0.00,,,0.06,0.000000,,2013-04-08 03:33:00,
2013-04-07 21:46:00,44.0,39.0,-100.00,East,91,7.0,11.0,82,0.00,,,0.06,0.000000,,2013-04-08 03:46:00,
2013-04-07 21:53:00,44.0,39.0,-100.00,East,91,7.0,11.0,82,0.00,,,0.06,0.000000,,2013-04-08 03:53:00,
2013-04-07 22:23:00,45.0,40.0,-100.00,WNW,300,11.0,18.0,81,0.00,,,0.06,0.000000,,2013-04-08 04:23:00,
2013-04-07 22:33:00,45.0,40.0,-100.00,WNW,300,11.0,18.0,81,0.00,,,0.06,0.000000,,2013-04-08 04:33:00,
2013-04-07 22:43:00,45.0,40.0,-100.00,WNW,300,11.0,18.0,81,0.00,,,0.06,0.000000,,2013-04-08 04:43:00,
2013-04-07 22:52:00,45.0,40.0,-100.00,WNW,300,11.0,18.0,81,0.00,,,0.06,0.000000,,2013-04-08 04:52:00,
2013-04-07 23:32:00,43.0,41.0,-100.00,NNW,348,6.0,20.0,93,0.14,,,0.20,0.000000,,2013-04-08 05:32:00,
2013-04-07 23:42:00,43.0,41.0,-100.00,NNW,348,6.0,20.0,93,0.14,,,0.20,0.000000,,2013-04-08 05:42:00,
2013-04-07 23:52:00,43.0,41.0,-100.00,NNW,348,6.0,20.0,93,0.14,,,0.20,0.000000,,2013-04-08 05:52:00,